Forge Village, Massachusetts
Current Conditions -  °F | °C
As of 8:56 AM on Monday 22 Dec 2014 (Local Time) from KBED Reporting Station
Overcast Overcast  
Wind Chill: 29°   Ceiling: 1100
Heat Index: 34°   Visibility: 10mi
Dew Point: 27°   Wind: 6mph
Humidity: 75%   Direction: 40°NE
Pressure: 30.38"   Gusts: NA
Location:  42.5863°N, 71.4398°W
Report Text: KBED 221356Z 04005KT 10SM OVC011 01/M03 A3038 RMK AO2 SLP305 T00111028
Loading
Personal Weather Stations






























Interactive Weather Map New forecast layout! Learn more

10-Day Weather Forecast

Advertisements
Track Severe Weather on mobile